createdAt,value
2019-06-27T00:00:36.295Z,17.90
2019-06-27T00:05:40.038Z,17.80
2019-06-27T00:10:43.832Z,17.70
2019-06-27T00:15:47.552Z,17.60
2019-06-27T00:20:53.983Z,17.40
2019-06-27T00:25:57.875Z,17.20
2019-06-27T00:31:01.889Z,17.10
2019-06-27T00:36:05.736Z,16.80
2019-06-27T00:41:09.557Z,16.70
2019-06-27T00:46:13.511Z,16.60
2019-06-27T00:51:17.204Z,16.50
2019-06-27T00:56:20.903Z,16.40
2019-06-27T01:01:24.648Z,16.50
2019-06-27T01:06:28.479Z,16.50
2019-06-27T01:11:32.203Z,16.50
2019-06-27T01:16:36.059Z,16.50
2019-06-27T01:21:40.097Z,16.50
2019-06-27T01:26:43.895Z,16.50
2019-06-27T01:31:47.751Z,16.40
2019-06-27T01:36:51.467Z,16.40
2019-06-27T01:41:55.215Z,16.20
2019-06-27T01:46:59.430Z,16.10
2019-06-27T01:52:03.174Z,16.00
2019-06-27T01:57:06.993Z,15.90
2019-06-27T02:02:10.839Z,15.70
2019-06-27T02:07:14.861Z,15.60
2019-06-27T02:12:18.611Z,15.40
2019-06-27T02:17:23.099Z,15.30
2019-06-27T02:22:26.864Z,15.10
2019-06-27T02:27:30.670Z,15.00
2019-06-27T02:32:34.515Z,14.80
2019-06-27T02:37:38.352Z,14.70
2019-06-27T02:42:42.271Z,14.70
2019-06-27T02:47:46.097Z,14.70
2019-06-27T02:52:50.071Z,14.60
2019-06-27T02:57:53.884Z,14.50
2019-06-27T03:02:57.669Z,14.40
2019-06-27T03:08:01.459Z,14.30
2019-06-27T03:13:05.432Z,14.30
2019-06-27T03:18:09.223Z,14.30
2019-06-27T03:23:13.468Z,14.40
2019-06-27T03:28:17.479Z,14.20
2019-06-27T03:33:21.227Z,14.20
2019-06-27T03:38:25.051Z,14.60
2019-06-27T03:43:28.914Z,14.80
2019-06-27T03:48:32.657Z,15.00
2019-06-27T03:53:36.388Z,15.10
2019-06-27T03:58:40.190Z,15.10
2019-06-27T04:03:43.929Z,15.40
2019-06-27T04:08:47.908Z,15.70
2019-06-27T04:13:51.623Z,15.60
2019-06-27T04:18:55.366Z,15.60
2019-06-27T04:23:59.127Z,15.60
2019-06-27T04:29:03.426Z,15.70
2019-06-27T04:34:07.248Z,15.90
2019-06-27T04:39:11.844Z,16.00
2019-06-27T04:44:15.856Z,16.00
2019-06-27T04:49:19.587Z,16.00
2019-06-27T04:54:23.339Z,16.10
2019-06-27T04:59:27.205Z,16.20
2019-06-27T05:04:30.970Z,16.50
2019-06-27T05:09:34.954Z,16.80
2019-06-27T05:14:38.783Z,16.30
2019-06-27T05:19:42.614Z,16.10
2019-06-27T05:24:46.969Z,16.50
2019-06-27T05:29:50.783Z,17.10
2019-06-27T05:34:54.515Z,17.70
2019-06-27T05:39:58.318Z,18.40
2019-06-27T05:45:02.357Z,17.40
2019-06-27T05:50:06.707Z,17.30
2019-06-27T05:55:10.912Z,16.90
2019-06-27T06:00:27.730Z,17.20
2019-06-27T06:05:20.499Z,17.20
2019-06-27T06:10:24.231Z,17.00
2019-06-27T06:15:28.122Z,16.70
2019-06-27T06:20:31.934Z,16.50
2019-06-27T06:25:35.663Z,16.80
2019-06-27T06:30:44.589Z,17.00
2019-06-27T06:35:44.875Z,17.60
2019-06-27T06:40:48.702Z,18.10
2019-06-27T06:45:52.459Z,19.00
2019-06-27T06:50:56.569Z,18.30
2019-06-27T06:56:00.566Z,18.50
2019-06-27T07:01:04.371Z,19.40
2019-06-27T07:06:08.404Z,19.20
2019-06-27T07:11:12.255Z,19.10
2019-06-27T07:16:16.087Z,18.50
2019-06-27T07:21:19.851Z,19.30
2019-06-27T07:26:23.604Z,19.60
2019-06-27T07:31:27.668Z,19.80
2019-06-27T07:36:31.552Z,19.80
2019-06-27T07:41:35.384Z,19.90
2019-06-27T07:46:39.415Z,20.40
2019-06-27T07:51:43.286Z,20.50
2019-06-27T07:56:47.070Z,19.90
2019-06-27T08:01:50.799Z,20.70
2019-06-27T08:06:54.554Z,21.60
2019-06-27T08:11:58.902Z,21.10
2019-06-27T08:17:02.821Z,20.60
2019-06-27T08:22:06.616Z,20.60
2019-06-27T08:27:10.372Z,20.70
2019-06-27T08:32:14.106Z,21.20
2019-06-27T08:37:18.243Z,21.30
2019-06-27T08:42:22.067Z,20.80
2019-06-27T08:47:25.813Z,20.60
2019-06-27T08:52:29.924Z,20.70
2019-06-27T08:57:34.116Z,20.70
2019-06-27T09:02:37.854Z,21.30
2019-06-27T09:07:41.819Z,21.30
2019-06-27T09:12:46.218Z,21.00
2019-06-27T09:17:50.182Z,20.60
2019-06-27T09:22:54.203Z,21.40
2019-06-27T09:27:57.948Z,21.70
2019-06-27T09:33:01.875Z,21.80
2019-06-27T09:38:06.091Z,22.30
2019-06-27T09:43:10.215Z,22.00
2019-06-27T09:48:14.209Z,21.50
2019-06-27T09:53:18.127Z,21.70
2019-06-27T09:58:21.992Z,21.40
2019-06-27T10:03:25.854Z,21.40
2019-06-27T10:08:29.860Z,21.40
2019-06-27T10:13:35.881Z,21.80
2019-06-27T10:18:39.692Z,21.70
2019-06-27T10:23:43.563Z,21.70
2019-06-27T10:28:47.311Z,22.00
2019-06-27T10:33:51.463Z,21.50
2019-06-27T10:38:55.247Z,22.20
2019-06-27T10:43:59.099Z,22.30
2019-06-27T10:49:02.910Z,22.60
2019-06-27T10:54:06.891Z,22.60
2019-06-27T10:59:10.731Z,22.60
2019-06-27T11:04:14.780Z,22.40
2019-06-27T11:09:18.870Z,21.90
2019-06-27T11:14:22.738Z,22.40
2019-06-27T11:19:29.752Z,22.90
2019-06-27T11:24:33.578Z,22.80
2019-06-27T11:29:37.407Z,22.40
2019-06-27T11:34:41.183Z,22.50
2019-06-27T11:39:44.952Z,22.60
2019-06-27T11:44:48.891Z,23.20
2019-06-27T11:49:52.965Z,23.50
2019-06-27T11:54:56.881Z,23.90
2019-06-27T12:00:00.698Z,24.40
2019-06-27T12:05:07.082Z,24.30
2019-06-27T12:10:12.636Z,24.70
2019-06-27T12:15:16.586Z,24.90
2019-06-27T12:20:20.401Z,24.40
2019-06-27T12:25:24.180Z,24.70
2019-06-27T12:30:28.087Z,25.00
2019-06-27T12:35:32.044Z,23.90
2019-06-27T12:40:35.910Z,23.90
2019-06-27T12:45:39.748Z,24.40
2019-06-27T12:50:43.491Z,24.40
2019-06-27T12:55:47.787Z,24.50
2019-06-27T13:00:51.896Z,24.40
2019-06-27T13:05:55.627Z,23.90
2019-06-27T13:11:00.499Z,24.00
2019-06-27T13:16:04.744Z,23.60
2019-06-27T13:21:08.747Z,23.30
2019-06-27T13:26:13.810Z,23.70
2019-06-27T13:31:18.056Z,23.70
2019-06-27T13:36:22.243Z,23.80
2019-06-27T13:41:26.876Z,23.80
2019-06-27T13:46:31.044Z,23.50
2019-06-27T13:51:34.847Z,24.20
2019-06-27T13:56:38.957Z,24.30
2019-06-27T14:01:42.889Z,24.40
2019-06-27T14:06:46.708Z,23.90
2019-06-27T14:11:50.734Z,24.50
2019-06-27T14:16:54.597Z,24.10
2019-06-27T14:21:59.021Z,23.90
2019-06-27T14:27:04.669Z,24.40
2019-06-27T14:32:08.772Z,24.80
2019-06-27T14:37:12.694Z,25.30
2019-06-27T14:42:16.471Z,24.20
2019-06-27T14:47:21.732Z,24.60
2019-06-27T14:52:25.901Z,24.40
2019-06-27T14:57:29.747Z,24.00
2019-06-27T15:02:33.680Z,23.90
2019-06-27T15:07:37.584Z,24.30
2019-06-27T15:12:55.852Z,24.10
2019-06-27T15:17:48.084Z,24.00
2019-06-27T15:22:52.053Z,24.90
2019-06-27T15:27:55.834Z,24.40
2019-06-27T15:33:00.260Z,24.20
2019-06-27T15:38:04.048Z,24.40
2019-06-27T15:43:09.200Z,24.30
2019-06-27T15:48:12.947Z,23.20
2019-06-27T15:53:17.125Z,24.30
2019-06-27T15:58:20.918Z,23.70
2019-06-27T16:03:24.836Z,23.50
2019-06-27T16:08:29.927Z,23.60
2019-06-27T16:13:33.902Z,24.00
2019-06-27T16:18:40.818Z,24.00
2019-06-27T16:23:43.252Z,22.90
2019-06-27T16:28:47.040Z,22.60
2019-06-27T16:33:51.030Z,23.20
2019-06-27T16:38:54.868Z,23.30
2019-06-27T16:43:59.291Z,23.20
2019-06-27T16:49:03.426Z,22.90
2019-06-27T16:54:07.220Z,22.80
2019-06-27T16:59:10.943Z,22.60
2019-06-27T17:04:14.784Z,22.60
2019-06-27T17:09:18.507Z,22.30
2019-06-27T17:14:22.550Z,22.10
2019-06-27T17:19:26.368Z,22.10
2019-06-27T17:24:30.095Z,22.10
2019-06-27T17:29:34.175Z,22.20
2019-06-27T17:34:37.975Z,22.00
2019-06-27T17:39:41.729Z,21.80
2019-06-27T17:44:45.682Z,21.40
2019-06-27T17:49:49.563Z,20.90
2019-06-27T17:54:53.335Z,20.90
2019-06-27T17:59:57.099Z,21.00
2019-06-27T18:05:02.323Z,20.50
2019-06-27T18:10:07.257Z,20.20
2019-06-27T18:15:11.446Z,20.50
2019-06-27T18:20:15.875Z,20.40
2019-06-27T18:25:19.722Z,20.10
2019-06-27T18:30:24.767Z,19.90
2019-06-27T18:35:28.960Z,20.10
2019-06-27T18:40:32.726Z,20.20
2019-06-27T18:45:36.495Z,20.10
2019-06-27T18:50:40.311Z,20.10
2019-06-27T18:55:44.427Z,19.80
2019-06-27T19:00:50.244Z,19.60
2019-06-27T19:06:06.585Z,19.60
2019-06-27T19:11:23.306Z,19.50
2019-06-27T19:16:33.525Z,19.10
2019-06-27T19:21:59.153Z,18.70
2019-06-27T19:27:03.571Z,18.40
2019-06-27T19:32:09.207Z,18.10
2019-06-27T19:37:13.393Z,17.90
2019-06-27T19:42:17.255Z,17.60
2019-06-27T19:47:21.344Z,17.40
2019-06-27T19:52:25.183Z,17.30
2019-06-27T19:57:29.113Z,17.10
2019-06-27T20:02:32.925Z,17.10
2019-06-27T20:07:36.828Z,16.90
2019-06-27T20:12:40.618Z,16.90
2019-06-27T20:17:44.412Z,16.80
2019-06-27T20:22:48.242Z,16.60
2019-06-27T20:27:52.188Z,16.50
2019-06-27T20:32:56.360Z,16.30
2019-06-27T20:38:00.367Z,16.10
2019-06-27T20:43:06.159Z,15.90
2019-06-27T20:48:10.006Z,15.70
2019-06-27T20:53:13.769Z,15.50
2019-06-27T20:58:17.584Z,15.70
2019-06-27T21:03:21.632Z,15.50
2019-06-27T21:08:25.344Z,15.30
2019-06-27T21:13:29.095Z,15.10
2019-06-27T21:18:33.207Z,14.90
2019-06-27T21:23:37.383Z,14.70
2019-06-27T21:28:41.242Z,14.50
2019-06-27T21:33:45.099Z,14.40
2019-06-27T21:38:48.864Z,14.40
2019-06-27T21:43:52.664Z,14.30
2019-06-27T21:48:56.750Z,14.10
2019-06-27T21:54:00.514Z,13.90
2019-06-27T21:59:04.600Z,14.00
2019-06-27T22:04:08.669Z,13.90
2019-06-27T22:09:23.983Z,13.80
2019-06-27T22:14:19.421Z,13.80
2019-06-27T22:19:23.140Z,13.80
2019-06-27T22:24:27.143Z,13.80
2019-06-27T22:29:30.869Z,13.70
2019-06-27T22:34:34.593Z,13.50
2019-06-27T22:39:56.162Z,13.40
2019-06-27T22:45:18.167Z,13.40
2019-06-27T22:50:35.053Z,13.30
2019-06-27T22:55:38.808Z,13.30
2019-06-27T23:00:42.596Z,13.20
2019-06-27T23:05:46.380Z,13.10
2019-06-27T23:10:50.144Z,13.10
2019-06-27T23:15:53.975Z,12.90
2019-06-27T23:20:57.706Z,12.90
2019-06-27T23:26:01.452Z,12.90
2019-06-27T23:31:05.267Z,12.90
2019-06-27T23:36:09.023Z,12.70
2019-06-27T23:41:12.891Z,12.60
2019-06-27T23:46:34.488Z,12.40
2019-06-27T23:51:38.234Z,12.30
2019-06-27T23:56:42.256Z,12.30
